Terminal Aerodrome Forecast
Issued by NWS

Home | Current Version | Previous Version | Text Only | Print | Product List | Glossary Off
Versions: 1 2 3 4 5 6 7 8 9 10 11 12 13 14 15 16 17

385
FTUS43 KICT 201129
TAFRSL
TAF
KRSL 201129Z 2012/2112 22010KT P6SM SKC
     FM202300 17013KT P6SM FEW070 SCT200
     FM210000 16013KT P6SM VCTS SCT070CB BKN200
     FM210500 17012KT P6SM SCT100 BKN250
     FM210700 18012KT P6SM SCT250 WS020/20040KT=

USA.gov is the U.S. government's official web portal to all federal, state and local government web resources and services.